sensor_id;sensor_type;location;lat;lon;timestamp;temperature;humidity
23703;DHT22;12030;50.376;8.762;2024-01-06T00:00:47;4.60;99.90
23703;DHT22;12030;50.376;8.762;2024-01-06T00:03:14;4.60;99.90
23703;DHT22;12030;50.376;8.762;2024-01-06T00:05:40;4.60;99.90
23703;DHT22;12030;50.376;8.762;2024-01-06T00:08:05;4.70;99.90
23703;DHT22;12030;50.376;8.762;2024-01-06T00:10:31;4.70;99.90
23703;DHT22;12030;50.376;8.762;2024-01-06T00:12:57;4.70;99.90
23703;DHT22;12030;50.376;8.762;2024-01-06T00:15:23;4.70;99.90
23703;DHT22;12030;50.376;8.762;2024-01-06T00:17:48;4.70;99.90
23703;DHT22;12030;50.376;8.762;2024-01-06T00:20:14;4.70;99.90
23703;DHT22;12030;50.376;8.762;2024-01-06T00:22:40;4.70;99.90
23703;DHT22;12030;50.376;8.762;2024-01-06T00:28:17;4.70;99.90
23703;DHT22;12030;50.376;8.762;2024-01-06T00:30:42;4.70;99.90
23703;DHT22;12030;50.376;8.762;2024-01-06T00:33:08;4.70;99.90
23703;DHT22;12030;50.376;8.762;2024-01-06T00:35:33;4.60;99.90
23703;DHT22;12030;50.376;8.762;2024-01-06T00:37:59;4.60;99.90
23703;DHT22;12030;50.376;8.762;2024-01-06T00:40:25;4.50;99.90
23703;DHT22;12030;50.376;8.762;2024-01-06T00:42:51;4.40;99.90
23703;DHT22;12030;50.376;8.762;2024-01-06T00:45:16;4.40;99.90
23703;DHT22;12030;50.376;8.762;2024-01-06T00:47:42;4.40;99.90
23703;DHT22;12030;50.376;8.762;2024-01-06T00:50:08;4.50;99.90
23703;DHT22;12030;50.376;8.762;2024-01-06T00:52:34;4.40;99.90
23703;DHT22;12030;50.376;8.762;2024-01-06T00:54:59;4.50;99.90
23703;DHT22;12030;50.376;8.762;2024-01-06T00:57:25;4.50;99.90
23703;DHT22;12030;50.376;8.762;2024-01-06T00:59:50;4.50;99.90
23703;DHT22;12030;50.376;8.762;2024-01-06T01:02:16;4.60;99.90
23703;DHT22;12030;50.376;8.762;2024-01-06T01:04:41;4.60;99.90
23703;DHT22;12030;50.376;8.762;2024-01-06T01:07:07;4.60;99.90
23703;DHT22;12030;50.376;8.762;2024-01-06T01:09:32;4.70;99.90
23703;DHT22;12030;50.376;8.762;2024-01-06T01:11:58;4.70;99.90
23703;DHT22;12030;50.376;8.762;2024-01-06T01:14:23;4.80;99.90
23703;DHT22;12030;50.376;8.762;2024-01-06T01:16:49;4.80;99.90
23703;DHT22;12030;50.376;8.762;2024-01-06T01:19:14;4.80;99.90
23703;DHT22;12030;50.376;8.762;2024-01-06T01:21:40;4.90;99.90
23703;DHT22;12030;50.376;8.762;2024-01-06T01:24:05;4.90;99.90
23703;DHT22;12030;50.376;8.762;2024-01-06T01:26:31;4.90;99.90
23703;DHT22;12030;50.376;8.762;2024-01-06T01:28:57;5.00;99.90
23703;DHT22;12030;50.376;8.762;2024-01-06T01:31:22;4.90;99.90
23703;DHT22;12030;50.376;8.762;2024-01-06T01:33:48;4.90;99.90
23703;DHT22;12030;50.376;8.762;2024-01-06T01:36:13;5.00;99.90
23703;DHT22;12030;50.376;8.762;2024-01-06T01:38:39;5.00;99.90
23703;DHT22;12030;50.376;8.762;2024-01-06T01:41:04;5.10;99.90
23703;DHT22;12030;50.376;8.762;2024-01-06T01:43:30;5.00;99.90
23703;DHT22;12030;50.376;8.762;2024-01-06T01:45:56;5.00;99.90
23703;DHT22;12030;50.376;8.762;2024-01-06T01:48:22;5.00;99.90
23703;DHT22;12030;50.376;8.762;2024-01-06T01:50:49;5.00;99.90
23703;DHT22;12030;50.376;8.762;2024-01-06T01:53:14;5.00;99.90
23703;DHT22;12030;50.376;8.762;2024-01-06T01:55:44;5.00;99.90
23703;DHT22;12030;50.376;8.762;2024-01-06T01:58:12;5.10;99.90
23703;DHT22;12030;50.376;8.762;2024-01-06T02:00:38;5.10;99.90
23703;DHT22;12030;50.376;8.762;2024-01-06T02:03:05;5.10;99.90
23703;DHT22;12030;50.376;8.762;2024-01-06T02:05:31;5.10;99.90
23703;DHT22;12030;50.376;8.762;2024-01-06T02:07:56;5.10;99.90
23703;DHT22;12030;50.376;8.762;2024-01-06T02:10:22;5.10;99.90
23703;DHT22;12030;50.376;8.762;2024-01-06T02:12:48;5.00;99.90
23703;DHT22;12030;50.376;8.762;2024-01-06T02:15:14;5.00;99.90
23703;DHT22;12030;50.376;8.762;2024-01-06T02:17:40;5.00;99.90
23703;DHT22;12030;50.376;8.762;2024-01-06T02:20:07;5.00;99.90
23703;DHT22;12030;50.376;8.762;2024-01-06T02:22:35;5.00;99.90
23703;DHT22;12030;50.376;8.762;2024-01-06T02:25:01;5.00;99.90
23703;DHT22;12030;50.376;8.762;2024-01-06T02:27:28;5.00;99.90
23703;DHT22;12030;50.376;8.762;2024-01-06T02:29:53;5.00;99.90
23703;DHT22;12030;50.376;8.762;2024-01-06T02:32:18;5.10;99.90
23703;DHT22;12030;50.376;8.762;2024-01-06T02:34:44;5.10;99.90
23703;DHT22;12030;50.376;8.762;2024-01-06T02:37:09;5.20;99.90
23703;DHT22;12030;50.376;8.762;2024-01-06T02:39:35;5.20;99.90
23703;DHT22;12030;50.376;8.762;2024-01-06T02:42:00;5.10;99.90
23703;DHT22;12030;50.376;8.762;2024-01-06T02:44:26;5.10;99.90
23703;DHT22;12030;50.376;8.762;2024-01-06T02:46:51;5.10;99.90
23703;DHT22;12030;50.376;8.762;2024-01-06T02:49:17;5.20;99.90
23703;DHT22;12030;50.376;8.762;2024-01-06T02:51:43;5.20;99.90
23703;DHT22;12030;50.376;8.762;2024-01-06T02:54:08;5.20;99.90
23703;DHT22;12030;50.376;8.762;2024-01-06T02:56:34;5.30;99.90
23703;DHT22;12030;50.376;8.762;2024-01-06T02:58:59;5.20;99.90
23703;DHT22;12030;50.376;8.762;2024-01-06T03:01:25;5.30;99.90
23703;DHT22;12030;50.376;8.762;2024-01-06T03:03:50;5.20;99.90
23703;DHT22;12030;50.376;8.762;2024-01-06T03:06:16;5.30;99.90
23703;DHT22;12030;50.376;8.762;2024-01-06T03:08:41;5.30;99.90
23703;DHT22;12030;50.376;8.762;2024-01-06T03:11:07;5.30;99.90
23703;DHT22;12030;50.376;8.762;2024-01-06T03:13:32;5.40;99.90
23703;DHT22;12030;50.376;8.762;2024-01-06T03:16:03;5.40;99.90
23703;DHT22;12030;50.376;8.762;2024-01-06T03:18:28;5.50;99.90
23703;DHT22;12030;50.376;8.762;2024-01-06T03:20:54;5.40;99.90
23703;DHT22;12030;50.376;8.762;2024-01-06T03:23:19;5.30;99.90
23703;DHT22;12030;50.376;8.762;2024-01-06T03:25:45;5.40;99.90
23703;DHT22;12030;50.376;8.762;2024-01-06T03:28:10;5.50;99.90
23703;DHT22;12030;50.376;8.762;2024-01-06T03:30:36;5.50;99.90
23703;DHT22;12030;50.376;8.762;2024-01-06T03:33:01;5.60;99.90
23703;DHT22;12030;50.376;8.762;2024-01-06T03:35:27;5.60;99.90
23703;DHT22;12030;50.376;8.762;2024-01-06T03:37:52;5.60;99.90
23703;DHT22;12030;50.376;8.762;2024-01-06T03:40:18;5.70;99.90
23703;DHT22;12030;50.376;8.762;2024-01-06T03:42:44;5.70;99.90
23703;DHT22;12030;50.376;8.762;2024-01-06T03:45:09;5.60;99.90
23703;DHT22;12030;50.376;8.762;2024-01-06T03:47:35;5.60;99.90
23703;DHT22;12030;50.376;8.762;2024-01-06T03:50:00;5.60;99.90
23703;DHT22;12030;50.376;8.762;2024-01-06T03:52:26;5.70;99.90
23703;DHT22;12030;50.376;8.762;2024-01-06T03:54:51;5.70;99.90
23703;DHT22;12030;50.376;8.762;2024-01-06T03:57:17;5.70;99.90
23703;DHT22;12030;50.376;8.762;2024-01-06T03:59:42;5.80;99.90
23703;DHT22;12030;50.376;8.762;2024-01-06T04:02:08;5.70;99.90
23703;DHT22;12030;50.376;8.762;2024-01-06T04:04:33;5.60;99.90
23703;DHT22;12030;50.376;8.762;2024-01-06T04:06:59;5.70;99.90
23703;DHT22;12030;50.376;8.762;2024-01-06T04:09:26;5.60;99.90
23703;DHT22;12030;50.376;8.762;2024-01-06T04:11:52;5.60;99.90
23703;DHT22;12030;50.376;8.762;2024-01-06T04:14:17;5.50;99.90
23703;DHT22;12030;50.376;8.762;2024-01-06T04:16:43;5.50;99.90
23703;DHT22;12030;50.376;8.762;2024-01-06T04:19:08;5.50;99.90
23703;DHT22;12030;50.376;8.762;2024-01-06T04:21:36;5.50;99.90
23703;DHT22;12030;50.376;8.762;2024-01-06T04:24:02;5.50;99.90
23703;DHT22;12030;50.376;8.762;2024-01-06T04:26:27;5.50;99.90
23703;DHT22;12030;50.376;8.762;2024-01-06T04:28:53;5.50;99.90
23703;DHT22;12030;50.376;8.762;2024-01-06T04:31:18;5.60;99.90
23703;DHT22;12030;50.376;8.762;2024-01-06T04:33:44;5.60;99.90
23703;DHT22;12030;50.376;8.762;2024-01-06T04:36:09;5.60;99.90
23703;DHT22;12030;50.376;8.762;2024-01-06T04:38:35;5.60;99.90
23703;DHT22;12030;50.376;8.762;2024-01-06T04:41:00;5.60;99.90
23703;DHT22;12030;50.376;8.762;2024-01-06T04:43:26;5.50;99.90
23703;DHT22;12030;50.376;8.762;2024-01-06T04:45:51;5.60;99.90
23703;DHT22;12030;50.376;8.762;2024-01-06T04:48:17;5.40;99.90
23703;DHT22;12030;50.376;8.762;2024-01-06T04:50:42;5.40;99.90
23703;DHT22;12030;50.376;8.762;2024-01-06T04:53:08;5.40;99.90
23703;DHT22;12030;50.376;8.762;2024-01-06T04:55:33;5.40;99.90
23703;DHT22;12030;50.376;8.762;2024-01-06T04:57:59;5.40;99.90
23703;DHT22;12030;50.376;8.762;2024-01-06T05:00:24;5.40;99.90
23703;DHT22;12030;50.376;8.762;2024-01-06T05:02:51;5.50;99.90
23703;DHT22;12030;50.376;8.762;2024-01-06T05:05:16;5.50;99.90
23703;DHT22;12030;50.376;8.762;2024-01-06T05:07:42;5.50;99.90
23703;DHT22;12030;50.376;8.762;2024-01-06T05:10:08;5.50;99.90
23703;DHT22;12030;50.376;8.762;2024-01-06T05:12:33;5.50;99.90
23703;DHT22;12030;50.376;8.762;2024-01-06T05:14:59;5.50;99.90
23703;DHT22;12030;50.376;8.762;2024-01-06T05:17:25;5.50;99.90
23703;DHT22;12030;50.376;8.762;2024-01-06T05:19:50;5.50;99.90
23703;DHT22;12030;50.376;8.762;2024-01-06T05:22:16;5.50;99.90
23703;DHT22;12030;50.376;8.762;2024-01-06T05:24:41;5.50;99.90
23703;DHT22;12030;50.376;8.762;2024-01-06T05:27:07;5.60;99.90
23703;DHT22;12030;50.376;8.762;2024-01-06T05:29:32;5.50;99.90
23703;DHT22;12030;50.376;8.762;2024-01-06T05:31:58;5.50;99.90
23703;DHT22;12030;50.376;8.762;2024-01-06T05:34:24;5.50;99.90
23703;DHT22;12030;50.376;8.762;2024-01-06T05:36:49;5.60;99.90
23703;DHT22;12030;50.376;8.762;2024-01-06T05:39:15;5.60;99.90
23703;DHT22;12030;50.376;8.762;2024-01-06T05:41:40;5.60;99.90
23703;DHT22;12030;50.376;8.762;2024-01-06T05:44:06;5.60;99.90
23703;DHT22;12030;50.376;8.762;2024-01-06T05:46:33;5.60;99.90
23703;DHT22;12030;50.376;8.762;2024-01-06T05:48:58;5.70;99.90
23703;DHT22;12030;50.376;8.762;2024-01-06T05:51:25;5.60;99.90
23703;DHT22;12030;50.376;8.762;2024-01-06T05:53:50;5.60;99.90
23703;DHT22;12030;50.376;8.762;2024-01-06T05:56:25;5.60;99.90
23703;DHT22;12030;50.376;8.762;2024-01-06T05:58:52;5.60;99.90
23703;DHT22;12030;50.376;8.762;2024-01-06T06:01:18;5.60;99.90
23703;DHT22;12030;50.376;8.762;2024-01-06T06:03:44;5.60;99.90
23703;DHT22;12030;50.376;8.762;2024-01-06T06:06:10;5.60;99.90
23703;DHT22;12030;50.376;8.762;2024-01-06T06:08:35;5.60;99.90
23703;DHT22;12030;50.376;8.762;2024-01-06T06:11:01;5.70;99.90
23703;DHT22;12030;50.376;8.762;2024-01-06T06:13:28;5.70;99.90
23703;DHT22;12030;50.376;8.762;2024-01-06T06:15:54;5.70;99.90
23703;DHT22;12030;50.376;8.762;2024-01-06T06:18:20;5.80;99.90
23703;DHT22;12030;50.376;8.762;2024-01-06T06:20:46;5.80;99.90
23703;DHT22;12030;50.376;8.762;2024-01-06T06:23:12;5.80;99.90
23703;DHT22;12030;50.376;8.762;2024-01-06T06:25:38;5.90;99.90
23703;DHT22;12030;50.376;8.762;2024-01-06T06:28:04;5.90;99.90
23703;DHT22;12030;50.376;8.762;2024-01-06T06:30:30;6.00;99.90
23703;DHT22;12030;50.376;8.762;2024-01-06T06:32:55;5.90;99.90
23703;DHT22;12030;50.376;8.762;2024-01-06T06:35:22;6.00;99.90
23703;DHT22;12030;50.376;8.762;2024-01-06T06:37:50;5.90;99.90
23703;DHT22;12030;50.376;8.762;2024-01-06T06:40:16;5.90;99.90
23703;DHT22;12030;50.376;8.762;2024-01-06T06:42:41;5.80;99.90
23703;DHT22;12030;50.376;8.762;2024-01-06T06:45:07;5.80;99.90
23703;DHT22;12030;50.376;8.762;2024-01-06T06:47:33;5.70;99.90
23703;DHT22;12030;50.376;8.762;2024-01-06T06:49:59;5.80;99.90
23703;DHT22;12030;50.376;8.762;2024-01-06T06:52:24;5.80;99.90
23703;DHT22;12030;50.376;8.762;2024-01-06T06:54:50;5.80;99.90
23703;DHT22;12030;50.376;8.762;2024-01-06T06:57:17;5.90;99.90
23703;DHT22;12030;50.376;8.762;2024-01-06T06:59:43;5.90;99.90
23703;DHT22;12030;50.376;8.762;2024-01-06T07:02:08;5.90;99.90
23703;DHT22;12030;50.376;8.762;2024-01-06T07:04:34;5.90;99.90
23703;DHT22;12030;50.376;8.762;2024-01-06T07:07:00;5.90;99.90
23703;DHT22;12030;50.376;8.762;2024-01-06T07:09:25;5.90;99.90
23703;DHT22;12030;50.376;8.762;2024-01-06T07:11:51;5.90;99.90
23703;DHT22;12030;50.376;8.762;2024-01-06T07:14:17;5.90;99.90
23703;DHT22;12030;50.376;8.762;2024-01-06T07:16:42;5.90;99.90
23703;DHT22;12030;50.376;8.762;2024-01-06T07:19:08;5.90;99.90
23703;DHT22;12030;50.376;8.762;2024-01-06T07:21:33;6.00;99.90
23703;DHT22;12030;50.376;8.762;2024-01-06T07:24:00;6.00;99.90
23703;DHT22;12030;50.376;8.762;2024-01-06T07:26:26;6.00;99.90
23703;DHT22;12030;50.376;8.762;2024-01-06T07:28:52;6.00;99.90
23703;DHT22;12030;50.376;8.762;2024-01-06T07:31:18;6.00;99.90
23703;DHT22;12030;50.376;8.762;2024-01-06T07:33:43;6.00;99.90
23703;DHT22;12030;50.376;8.762;2024-01-06T07:36:09;6.00;99.90
23703;DHT22;12030;50.376;8.762;2024-01-06T07:38:34;6.00;99.90
23703;DHT22;12030;50.376;8.762;2024-01-06T07:41:03;6.00;99.90
23703;DHT22;12030;50.376;8.762;2024-01-06T07:43:31;5.90;99.90
23703;DHT22;12030;50.376;8.762;2024-01-06T07:45:57;5.90;99.90
23703;DHT22;12030;50.376;8.762;2024-01-06T07:48:22;5.90;99.90
23703;DHT22;12030;50.376;8.762;2024-01-06T07:50:48;5.90;99.90
23703;DHT22;12030;50.376;8.762;2024-01-06T07:53:13;5.90;99.90
23703;DHT22;12030;50.376;8.762;2024-01-06T07:55:40;5.90;99.90
23703;DHT22;12030;50.376;8.762;2024-01-06T07:58:05;5.90;99.90
23703;DHT22;12030;50.376;8.762;2024-01-06T08:00:31;5.90;99.90
23703;DHT22;12030;50.376;8.762;2024-01-06T08:02:56;5.90;99.90
23703;DHT22;12030;50.376;8.762;2024-01-06T08:05:22;5.90;99.90
23703;DHT22;12030;50.376;8.762;2024-01-06T08:07:47;5.90;99.90
23703;DHT22;12030;50.376;8.762;2024-01-06T08:10:13;6.00;99.90
23703;DHT22;12030;50.376;8.762;2024-01-06T08:12:39;6.00;99.90
23703;DHT22;12030;50.376;8.762;2024-01-06T08:15:04;6.00;99.90
23703;DHT22;12030;50.376;8.762;2024-01-06T08:17:30;6.10;99.90
23703;DHT22;12030;50.376;8.762;2024-01-06T08:19:56;6.10;99.90
23703;DHT22;12030;50.376;8.762;2024-01-06T08:22:21;6.10;99.90
23703;DHT22;12030;50.376;8.762;2024-01-06T08:24:47;6.10;99.90
23703;DHT22;12030;50.376;8.762;2024-01-06T08:27:13;6.10;99.90
23703;DHT22;12030;50.376;8.762;2024-01-06T08:29:39;6.10;99.90
23703;DHT22;12030;50.376;8.762;2024-01-06T08:32:05;6.10;99.90
23703;DHT22;12030;50.376;8.762;2024-01-06T08:34:30;6.10;99.90
23703;DHT22;12030;50.376;8.762;2024-01-06T08:36:56;6.10;99.90
23703;DHT22;12030;50.376;8.762;2024-01-06T08:39:21;6.20;99.90
23703;DHT22;12030;50.376;8.762;2024-01-06T08:41:47;6.20;99.90
23703;DHT22;12030;50.376;8.762;2024-01-06T08:44:13;6.10;99.90
23703;DHT22;12030;50.376;8.762;2024-01-06T08:46:39;6.10;99.90
23703;DHT22;12030;50.376;8.762;2024-01-06T08:49:05;6.10;99.90
23703;DHT22;12030;50.376;8.762;2024-01-06T08:51:30;6.20;99.90
23703;DHT22;12030;50.376;8.762;2024-01-06T08:53:56;6.20;99.90
23703;DHT22;12030;50.376;8.762;2024-01-06T08:56:22;6.20;99.90
23703;DHT22;12030;50.376;8.762;2024-01-06T08:58:47;6.20;99.90
23703;DHT22;12030;50.376;8.762;2024-01-06T09:01:13;6.20;99.90
23703;DHT22;12030;50.376;8.762;2024-01-06T09:03:41;6.30;99.90
23703;DHT22;12030;50.376;8.762;2024-01-06T09:06:07;6.30;99.90
23703;DHT22;12030;50.376;8.762;2024-01-06T09:08:32;6.40;99.90
23703;DHT22;12030;50.376;8.762;2024-01-06T09:10:58;6.40;99.90
23703;DHT22;12030;50.376;8.762;2024-01-06T09:13:24;6.50;99.90
23703;DHT22;12030;50.376;8.762;2024-01-06T09:15:53;6.50;99.90
23703;DHT22;12030;50.376;8.762;2024-01-06T09:18:19;6.50;99.90
23703;DHT22;12030;50.376;8.762;2024-01-06T09:20:44;6.50;99.90
23703;DHT22;12030;50.376;8.762;2024-01-06T09:23:13;6.50;99.90
23703;DHT22;12030;50.376;8.762;2024-01-06T09:25:38;6.60;99.90
23703;DHT22;12030;50.376;8.762;2024-01-06T09:28:05;6.60;99.90
23703;DHT22;12030;50.376;8.762;2024-01-06T09:30:31;6.70;99.90
23703;DHT22;12030;50.376;8.762;2024-01-06T09:32:56;6.70;99.90
23703;DHT22;12030;50.376;8.762;2024-01-06T09:35:22;6.70;99.90
23703;DHT22;12030;50.376;8.762;2024-01-06T09:37:48;6.80;99.90
23703;DHT22;12030;50.376;8.762;2024-01-06T09:40:20;6.70;99.90
23703;DHT22;12030;50.376;8.762;2024-01-06T09:42:46;6.70;99.90
23703;DHT22;12030;50.376;8.762;2024-01-06T09:45:12;6.70;99.90
23703;DHT22;12030;50.376;8.762;2024-01-06T09:47:38;6.70;99.90
23703;DHT22;12030;50.376;8.762;2024-01-06T09:50:06;6.70;99.90
23703;DHT22;12030;50.376;8.762;2024-01-06T09:52:39;6.80;99.90
23703;DHT22;12030;50.376;8.762;2024-01-06T09:55:10;6.70;99.90
23703;DHT22;12030;50.376;8.762;2024-01-06T09:57:36;6.70;99.90
23703;DHT22;12030;50.376;8.762;2024-01-06T10:00:02;6.70;99.90
23703;DHT22;12030;50.376;8.762;2024-01-06T10:02:28;6.70;99.90
23703;DHT22;12030;50.376;8.762;2024-01-06T10:04:53;6.70;99.90
23703;DHT22;12030;50.376;8.762;2024-01-06T10:07:19;6.80;99.90
23703;DHT22;12030;50.376;8.762;2024-01-06T10:09:44;6.90;99.90
23703;DHT22;12030;50.376;8.762;2024-01-06T10:12:10;6.90;99.90
23703;DHT22;12030;50.376;8.762;2024-01-06T10:14:36;7.00;99.90
23703;DHT22;12030;50.376;8.762;2024-01-06T10:17:06;7.00;99.90
23703;DHT22;12030;50.376;8.762;2024-01-06T10:19:32;7.00;99.90
23703;DHT22;12030;50.376;8.762;2024-01-06T10:21:58;7.00;99.90
23703;DHT22;12030;50.376;8.762;2024-01-06T10:24:27;7.00;99.90
23703;DHT22;12030;50.376;8.762;2024-01-06T10:26:53;7.00;99.90
23703;DHT22;12030;50.376;8.762;2024-01-06T10:29:18;7.00;99.90
23703;DHT22;12030;50.376;8.762;2024-01-06T10:31:44;7.00;99.90
23703;DHT22;12030;50.376;8.762;2024-01-06T10:34:09;6.90;99.90
23703;DHT22;12030;50.376;8.762;2024-01-06T10:36:35;6.90;99.90
23703;DHT22;12030;50.376;8.762;2024-01-06T10:39:03;6.90;99.90
23703;DHT22;12030;50.376;8.762;2024-01-06T10:41:29;6.90;99.90
23703;DHT22;12030;50.376;8.762;2024-01-06T10:43:58;6.90;99.90
23703;DHT22;12030;50.376;8.762;2024-01-06T10:46:26;6.90;99.90
23703;DHT22;12030;50.376;8.762;2024-01-06T10:48:55;7.00;99.90
23703;DHT22;12030;50.376;8.762;2024-01-06T10:51:23;7.00;99.90
23703;DHT22;12030;50.376;8.762;2024-01-06T10:53:50;7.00;99.90
23703;DHT22;12030;50.376;8.762;2024-01-06T10:56:17;7.00;99.90
23703;DHT22;12030;50.376;8.762;2024-01-06T10:58:47;7.10;99.90
23703;DHT22;12030;50.376;8.762;2024-01-06T11:01:19;7.20;99.90
23703;DHT22;12030;50.376;8.762;2024-01-06T11:03:45;7.10;99.90
23703;DHT22;12030;50.376;8.762;2024-01-06T11:06:12;7.10;99.90
23703;DHT22;12030;50.376;8.762;2024-01-06T11:08:46;7.10;99.90
23703;DHT22;12030;50.376;8.762;2024-01-06T11:11:18;7.10;99.90
23703;DHT22;12030;50.376;8.762;2024-01-06T11:13:45;7.20;99.90
23703;DHT22;12030;50.376;8.762;2024-01-06T11:16:12;7.10;99.90
23703;DHT22;12030;50.376;8.762;2024-01-06T11:18:57;7.20;99.90
23703;DHT22;12030;50.376;8.762;2024-01-06T11:21:23;7.30;99.90
23703;DHT22;12030;50.376;8.762;2024-01-06T11:26:44;7.30;99.90
23703;DHT22;12030;50.376;8.762;2024-01-06T11:29:10;7.40;99.90
23703;DHT22;12030;50.376;8.762;2024-01-06T11:31:39;7.50;99.90
23703;DHT22;12030;50.376;8.762;2024-01-06T11:34:17;7.50;99.90
23703;DHT22;12030;50.376;8.762;2024-01-06T11:36:44;7.60;99.90
23703;DHT22;12030;50.376;8.762;2024-01-06T11:39:36;7.70;99.90
23703;DHT22;12030;50.376;8.762;2024-01-06T11:42:04;7.70;99.90
23703;DHT22;12030;50.376;8.762;2024-01-06T11:44:33;7.80;99.90
23703;DHT22;12030;50.376;8.762;2024-01-06T11:46:59;7.80;99.90
23703;DHT22;12030;50.376;8.762;2024-01-06T11:49:27;7.80;99.90
23703;DHT22;12030;50.376;8.762;2024-01-06T11:51:56;7.90;99.90
23703;DHT22;12030;50.376;8.762;2024-01-06T11:54:22;7.80;99.90
23703;DHT22;12030;50.376;8.762;2024-01-06T11:56:48;7.80;99.90
23703;DHT22;12030;50.376;8.762;2024-01-06T11:59:14;7.80;99.90
23703;DHT22;12030;50.376;8.762;2024-01-06T12:01:39;7.80;99.90
23703;DHT22;12030;50.376;8.762;2024-01-06T12:04:05;7.80;99.90
23703;DHT22;12030;50.376;8.762;2024-01-06T12:06:32;7.90;99.90
23703;DHT22;12030;50.376;8.762;2024-01-06T12:09:08;7.90;99.90
23703;DHT22;12030;50.376;8.762;2024-01-06T12:11:34;7.90;99.90
23703;DHT22;12030;50.376;8.762;2024-01-06T12:14:00;7.90;99.90
23703;DHT22;12030;50.376;8.762;2024-01-06T12:16:25;7.90;99.90
23703;DHT22;12030;50.376;8.762;2024-01-06T12:18:55;7.80;99.90
23703;DHT22;12030;50.376;8.762;2024-01-06T12:21:23;7.80;99.90
23703;DHT22;12030;50.376;8.762;2024-01-06T12:23:48;7.80;99.90
23703;DHT22;12030;50.376;8.762;2024-01-06T12:26:14;7.80;99.90
23703;DHT22;12030;50.376;8.762;2024-01-06T12:28:39;7.80;99.90
23703;DHT22;12030;50.376;8.762;2024-01-06T12:31:09;7.80;99.90
23703;DHT22;12030;50.376;8.762;2024-01-06T12:33:35;7.80;99.90
23703;DHT22;12030;50.376;8.762;2024-01-06T12:36:03;7.80;99.90
23703;DHT22;12030;50.376;8.762;2024-01-06T12:38:29;7.90;99.90
23703;DHT22;12030;50.376;8.762;2024-01-06T12:40:56;7.90;99.90
23703;DHT22;12030;50.376;8.762;2024-01-06T12:43:21;8.00;99.90
23703;DHT22;12030;50.376;8.762;2024-01-06T12:45:47;8.00;99.90
23703;DHT22;12030;50.376;8.762;2024-01-06T12:48:13;8.00;99.90
23703;DHT22;12030;50.376;8.762;2024-01-06T12:50:38;8.00;99.90
23703;DHT22;12030;50.376;8.762;2024-01-06T12:53:04;8.00;99.90
23703;DHT22;12030;50.376;8.762;2024-01-06T12:55:29;8.00;99.90
23703;DHT22;12030;50.376;8.762;2024-01-06T12:57:55;7.80;99.90
23703;DHT22;12030;50.376;8.762;2024-01-06T13:00:21;7.80;99.90
23703;DHT22;12030;50.376;8.762;2024-01-06T13:02:46;7.80;99.90
23703;DHT22;12030;50.376;8.762;2024-01-06T13:05:12;7.80;99.90
23703;DHT22;12030;50.376;8.762;2024-01-06T13:07:38;7.80;99.90
23703;DHT22;12030;50.376;8.762;2024-01-06T13:10:05;7.80;99.90
23703;DHT22;12030;50.376;8.762;2024-01-06T13:12:30;7.70;99.90
23703;DHT22;12030;50.376;8.762;2024-01-06T13:14:56;7.70;99.90
23703;DHT22;12030;50.376;8.762;2024-01-06T13:17:22;7.70;99.90
23703;DHT22;12030;50.376;8.762;2024-01-06T13:19:47;7.70;99.90
23703;DHT22;12030;50.376;8.762;2024-01-06T13:22:13;7.70;99.90
23703;DHT22;12030;50.376;8.762;2024-01-06T13:24:40;7.70;99.90
23703;DHT22;12030;50.376;8.762;2024-01-06T13:27:06;7.60;99.90
23703;DHT22;12030;50.376;8.762;2024-01-06T13:29:31;7.70;99.90
23703;DHT22;12030;50.376;8.762;2024-01-06T13:31:57;7.70;99.90
23703;DHT22;12030;50.376;8.762;2024-01-06T13:34:25;7.70;99.90
23703;DHT22;12030;50.376;8.762;2024-01-06T13:36:50;7.70;99.90
23703;DHT22;12030;50.376;8.762;2024-01-06T13:39:16;7.70;99.90
23703;DHT22;12030;50.376;8.762;2024-01-06T13:41:46;7.60;99.90
23703;DHT22;12030;50.376;8.762;2024-01-06T13:44:13;7.70;99.90
23703;DHT22;12030;50.376;8.762;2024-01-06T13:46:39;7.60;99.90
23703;DHT22;12030;50.376;8.762;2024-01-06T13:49:06;7.70;99.90
23703;DHT22;12030;50.376;8.762;2024-01-06T13:51:32;7.70;99.90
23703;DHT22;12030;50.376;8.762;2024-01-06T13:53:58;7.70;99.90
23703;DHT22;12030;50.376;8.762;2024-01-06T13:56:23;7.60;99.90
23703;DHT22;12030;50.376;8.762;2024-01-06T13:58:49;7.60;99.90
23703;DHT22;12030;50.376;8.762;2024-01-06T14:01:16;7.60;99.90
23703;DHT22;12030;50.376;8.762;2024-01-06T14:03:42;7.70;99.90
23703;DHT22;12030;50.376;8.762;2024-01-06T14:06:07;7.80;99.90
23703;DHT22;12030;50.376;8.762;2024-01-06T14:08:34;7.80;99.90
23703;DHT22;12030;50.376;8.762;2024-01-06T14:10:59;7.80;99.90
23703;DHT22;12030;50.376;8.762;2024-01-06T14:13:25;7.80;99.90
23703;DHT22;12030;50.376;8.762;2024-01-06T14:15:51;7.80;99.90
23703;DHT22;12030;50.376;8.762;2024-01-06T14:18:17;7.60;99.90
23703;DHT22;12030;50.376;8.762;2024-01-06T14:20:42;7.50;99.90
23703;DHT22;12030;50.376;8.762;2024-01-06T14:23:08;7.50;99.90
23703;DHT22;12030;50.376;8.762;2024-01-06T14:25:35;7.30;99.90
23703;DHT22;12030;50.376;8.762;2024-01-06T14:28:01;7.30;99.90
23703;DHT22;12030;50.376;8.762;2024-01-06T14:30:27;7.20;99.90
23703;DHT22;12030;50.376;8.762;2024-01-06T14:32:52;7.30;99.90
23703;DHT22;12030;50.376;8.762;2024-01-06T14:35:18;7.40;99.90
23703;DHT22;12030;50.376;8.762;2024-01-06T14:37:43;7.40;99.90
23703;DHT22;12030;50.376;8.762;2024-01-06T14:40:12;7.30;99.90
23703;DHT22;12030;50.376;8.762;2024-01-06T14:42:38;7.40;99.90
23703;DHT22;12030;50.376;8.762;2024-01-06T14:45:04;7.40;99.90
23703;DHT22;12030;50.376;8.762;2024-01-06T14:47:30;7.40;99.90
23703;DHT22;12030;50.376;8.762;2024-01-06T14:49:57;7.40;99.90
23703;DHT22;12030;50.376;8.762;2024-01-06T14:52:23;7.40;99.90
23703;DHT22;12030;50.376;8.762;2024-01-06T14:54:48;7.40;99.90
23703;DHT22;12030;50.376;8.762;2024-01-06T14:57:15;7.50;99.90
23703;DHT22;12030;50.376;8.762;2024-01-06T14:59:40;7.50;99.90
23703;DHT22;12030;50.376;8.762;2024-01-06T15:02:06;7.50;99.90
23703;DHT22;12030;50.376;8.762;2024-01-06T15:04:32;7.50;99.90
23703;DHT22;12030;50.376;8.762;2024-01-06T15:06:58;7.50;99.90
23703;DHT22;12030;50.376;8.762;2024-01-06T15:09:24;7.50;99.90
23703;DHT22;12030;50.376;8.762;2024-01-06T15:11:52;7.50;99.90
23703;DHT22;12030;50.376;8.762;2024-01-06T15:14:17;7.50;99.90
23703;DHT22;12030;50.376;8.762;2024-01-06T15:16:43;7.40;99.90
23703;DHT22;12030;50.376;8.762;2024-01-06T15:19:08;7.40;99.90
23703;DHT22;12030;50.376;8.762;2024-01-06T15:21:34;7.40;99.90
23703;DHT22;12030;50.376;8.762;2024-01-06T15:24:02;7.40;99.90
23703;DHT22;12030;50.376;8.762;2024-01-06T15:26:27;7.40;99.90
23703;DHT22;12030;50.376;8.762;2024-01-06T15:28:54;7.40;99.90
23703;DHT22;12030;50.376;8.762;2024-01-06T15:31:21;7.30;99.90
23703;DHT22;12030;50.376;8.762;2024-01-06T15:33:47;7.20;99.90
23703;DHT22;12030;50.376;8.762;2024-01-06T15:36:13;7.10;99.90
23703;DHT22;12030;50.376;8.762;2024-01-06T15:38:39;7.10;99.90
23703;DHT22;12030;50.376;8.762;2024-01-06T15:41:04;7.10;99.90
23703;DHT22;12030;50.376;8.762;2024-01-06T15:43:32;7.10;99.90